sensor_id;sensor_type;location;lat;lon;timestamp;P1;durP1;ratioP1;P2;durP2;ratioP2
12308;SDS011;6217;48.150;17.142;2023-12-20T00:00:51;179.73;;;48.40;;
12308;SDS011;6217;48.150;17.142;2023-12-20T00:04:57;140.73;;;36.25;;
12308;SDS011;6217;48.150;17.142;2023-12-20T00:09:03;149.50;;;33.97;;
12308;SDS011;6217;48.150;17.142;2023-12-20T00:13:10;142.52;;;44.45;;
12308;SDS011;6217;48.150;17.142;2023-12-20T00:17:16;137.73;;;37.13;;
12308;SDS011;6217;48.150;17.142;2023-12-20T00:21:22;119.53;;;32.80;;
12308;SDS011;6217;48.150;17.142;2023-12-20T00:25:29;93.97;;;34.72;;
12308;SDS011;6217;48.150;17.142;2023-12-20T00:29:35;145.27;;;47.53;;
12308;SDS011;6217;48.150;17.142;2023-12-20T00:33:40;179.20;;;44.88;;
12308;SDS011;6217;48.150;17.142;2023-12-20T00:37:48;164.93;;;49.83;;
12308;SDS011;6217;48.150;17.142;2023-12-20T00:41:54;90.03;;;34.97;;
12308;SDS011;6217;48.150;17.142;2023-12-20T00:46:00;146.30;;;46.55;;
12308;SDS011;6217;48.150;17.142;2023-12-20T00:50:06;119.50;;;41.95;;
12308;SDS011;6217;48.150;17.142;2023-12-20T00:54:12;126.78;;;36.08;;
12308;SDS011;6217;48.150;17.142;2023-12-20T00:58:18;129.05;;;33.30;;
12308;SDS011;6217;48.150;17.142;2023-12-20T01:02:24;80.72;;;34.58;;
12308;SDS011;6217;48.150;17.142;2023-12-20T01:06:30;91.90;;;33.05;;
12308;SDS011;6217;48.150;17.142;2023-12-20T01:10:36;98.95;;;36.10;;
12308;SDS011;6217;48.150;17.142;2023-12-20T01:14:42;124.45;;;35.72;;
12308;SDS011;6217;48.150;17.142;2023-12-20T01:18:48;88.50;;;33.72;;
12308;SDS011;6217;48.150;17.142;2023-12-20T01:22:54;118.03;;;38.20;;
12308;SDS011;6217;48.150;17.142;2023-12-20T01:27:00;64.10;;;26.00;;
12308;SDS011;6217;48.150;17.142;2023-12-20T01:31:06;72.05;;;27.50;;
12308;SDS011;6217;48.150;17.142;2023-12-20T01:35:13;99.18;;;29.77;;
12308;SDS011;6217;48.150;17.142;2023-12-20T01:39:19;89.20;;;32.30;;
12308;SDS011;6217;48.150;17.142;2023-12-20T01:43:25;73.10;;;25.70;;
12308;SDS011;6217;48.150;17.142;2023-12-20T01:47:32;78.90;;;26.25;;
12308;SDS011;6217;48.150;17.142;2023-12-20T01:51:38;83.55;;;28.67;;
12308;SDS011;6217;48.150;17.142;2023-12-20T01:55:45;97.38;;;32.50;;
12308;SDS011;6217;48.150;17.142;2023-12-20T01:59:52;103.60;;;33.75;;
12308;SDS011;6217;48.150;17.142;2023-12-20T02:03:58;106.53;;;32.90;;
12308;SDS011;6217;48.150;17.142;2023-12-20T02:08:06;122.03;;;36.28;;
12308;SDS011;6217;48.150;17.142;2023-12-20T02:12:12;87.20;;;28.75;;
12308;SDS011;6217;48.150;17.142;2023-12-20T02:16:18;77.50;;;33.92;;
12308;SDS011;6217;48.150;17.142;2023-12-20T02:20:24;71.82;;;29.65;;
12308;SDS011;6217;48.150;17.142;2023-12-20T02:24:30;123.88;;;34.08;;
12308;SDS011;6217;48.150;17.142;2023-12-20T02:28:36;134.25;;;36.85;;
12308;SDS011;6217;48.150;17.142;2023-12-20T02:32:42;141.63;;;34.92;;
12308;SDS011;6217;48.150;17.142;2023-12-20T02:36:48;117.63;;;32.03;;
12308;SDS011;6217;48.150;17.142;2023-12-20T02:40:53;157.15;;;43.40;;
12308;SDS011;6217;48.150;17.142;2023-12-20T02:44:59;98.47;;;31.98;;
12308;SDS011;6217;48.150;17.142;2023-12-20T02:49:06;112.55;;;30.42;;
12308;SDS011;6217;48.150;17.142;2023-12-20T02:53:12;135.05;;;31.50;;
12308;SDS011;6217;48.150;17.142;2023-12-20T02:57:18;154.18;;;35.70;;
12308;SDS011;6217;48.150;17.142;2023-12-20T03:01:24;198.77;;;42.05;;
12308;SDS011;6217;48.150;17.142;2023-12-20T03:05:30;137.25;;;35.40;;
12308;SDS011;6217;48.150;17.142;2023-12-20T03:09:36;147.20;;;34.25;;
12308;SDS011;6217;48.150;17.142;2023-12-20T03:13:42;310.23;;;53.20;;
12308;SDS011;6217;48.150;17.142;2023-12-20T03:17:48;174.93;;;33.45;;
12308;SDS011;6217;48.150;17.142;2023-12-20T03:21:55;189.05;;;42.42;;
12308;SDS011;6217;48.150;17.142;2023-12-20T03:26:01;140.02;;;33.83;;
12308;SDS011;6217;48.150;17.142;2023-12-20T03:30:07;216.20;;;38.53;;
12308;SDS011;6217;48.150;17.142;2023-12-20T03:34:13;62.60;;;29.00;;
12308;SDS011;6217;48.150;17.142;2023-12-20T03:38:20;67.25;;;27.98;;
12308;SDS011;6217;48.150;17.142;2023-12-20T03:42:26;107.63;;;29.27;;
12308;SDS011;6217;48.150;17.142;2023-12-20T03:46:32;121.50;;;28.70;;
12308;SDS011;6217;48.150;17.142;2023-12-20T03:50:38;103.20;;;29.45;;
12308;SDS011;6217;48.150;17.142;2023-12-20T03:54:44;141.73;;;37.78;;
12308;SDS011;6217;48.150;17.142;2023-12-20T03:58:50;162.35;;;34.40;;
12308;SDS011;6217;48.150;17.142;2023-12-20T04:02:56;141.85;;;33.10;;
12308;SDS011;6217;48.150;17.142;2023-12-20T04:07:02;100.32;;;26.77;;
12308;SDS011;6217;48.150;17.142;2023-12-20T04:11:08;106.88;;;26.83;;
12308;SDS011;6217;48.150;17.142;2023-12-20T04:15:14;149.77;;;28.25;;
12308;SDS011;6217;48.150;17.142;2023-12-20T04:19:20;105.85;;;26.85;;
12308;SDS011;6217;48.150;17.142;2023-12-20T04:23:25;78.47;;;25.40;;
12308;SDS011;6217;48.150;17.142;2023-12-20T04:27:31;134.45;;;30.13;;
12308;SDS011;6217;48.150;17.142;2023-12-20T04:31:37;112.07;;;31.83;;
12308;SDS011;6217;48.150;17.142;2023-12-20T04:35:43;105.30;;;33.35;;
12308;SDS011;6217;48.150;17.142;2023-12-20T04:39:51;110.65;;;32.28;;
12308;SDS011;6217;48.150;17.142;2023-12-20T04:43:56;103.22;;;25.63;;
12308;SDS011;6217;48.150;17.142;2023-12-20T04:48:02;104.47;;;30.33;;
12308;SDS011;6217;48.150;17.142;2023-12-20T04:52:09;62.13;;;26.48;;
12308;SDS011;6217;48.150;17.142;2023-12-20T04:56:15;96.95;;;28.05;;
12308;SDS011;6217;48.150;17.142;2023-12-20T05:00:21;92.22;;;30.00;;
12308;SDS011;6217;48.150;17.142;2023-12-20T05:04:27;62.65;;;27.25;;
12308;SDS011;6217;48.150;17.142;2023-12-20T05:08:33;122.68;;;36.83;;
12308;SDS011;6217;48.150;17.142;2023-12-20T05:12:39;67.20;;;24.42;;
12308;SDS011;6217;48.150;17.142;2023-12-20T05:16:45;80.93;;;25.20;;
12308;SDS011;6217;48.150;17.142;2023-12-20T05:20:50;67.75;;;25.35;;
12308;SDS011;6217;48.150;17.142;2023-12-20T05:24:57;98.20;;;24.98;;
12308;SDS011;6217;48.150;17.142;2023-12-20T05:29:03;75.15;;;24.48;;
12308;SDS011;6217;48.150;17.142;2023-12-20T05:33:09;69.43;;;28.83;;
12308;SDS011;6217;48.150;17.142;2023-12-20T05:37:14;71.60;;;26.55;;
12308;SDS011;6217;48.150;17.142;2023-12-20T05:41:20;68.05;;;26.88;;
12308;SDS011;6217;48.150;17.142;2023-12-20T05:45:27;55.30;;;24.58;;
12308;SDS011;6217;48.150;17.142;2023-12-20T05:49:32;75.13;;;28.67;;
12308;SDS011;6217;48.150;17.142;2023-12-20T05:53:38;91.38;;;26.63;;
12308;SDS011;6217;48.150;17.142;2023-12-20T05:57:44;57.08;;;24.58;;
12308;SDS011;6217;48.150;17.142;2023-12-20T06:01:50;81.82;;;29.23;;
12308;SDS011;6217;48.150;17.142;2023-12-20T06:05:56;62.17;;;25.35;;
12308;SDS011;6217;48.150;17.142;2023-12-20T06:10:02;70.70;;;29.30;;
12308;SDS011;6217;48.150;17.142;2023-12-20T06:14:08;56.28;;;23.55;;
12308;SDS011;6217;48.150;17.142;2023-12-20T06:18:14;53.13;;;24.52;;
12308;SDS011;6217;48.150;17.142;2023-12-20T06:22:20;53.90;;;25.60;;
12308;SDS011;6217;48.150;17.142;2023-12-20T06:26:26;69.10;;;28.23;;
12308;SDS011;6217;48.150;17.142;2023-12-20T06:30:32;100.82;;;30.95;;
12308;SDS011;6217;48.150;17.142;2023-12-20T06:34:38;54.83;;;25.52;;
12308;SDS011;6217;48.150;17.142;2023-12-20T06:38:44;92.93;;;31.83;;
12308;SDS011;6217;48.150;17.142;2023-12-20T06:42:51;81.28;;;30.15;;
12308;SDS011;6217;48.150;17.142;2023-12-20T06:46:57;72.18;;;28.40;;
12308;SDS011;6217;48.150;17.142;2023-12-20T06:51:03;103.28;;;34.97;;
12308;SDS011;6217;48.150;17.142;2023-12-20T06:55:09;95.80;;;34.58;;
12308;SDS011;6217;48.150;17.142;2023-12-20T06:59:15;100.95;;;36.67;;
12308;SDS011;6217;48.150;17.142;2023-12-20T07:03:21;160.38;;;42.13;;
12308;SDS011;6217;48.150;17.142;2023-12-20T07:07:27;160.48;;;36.47;;
12308;SDS011;6217;48.150;17.142;2023-12-20T07:11:33;68.13;;;30.58;;
12308;SDS011;6217;48.150;17.142;2023-12-20T07:15:38;76.43;;;29.42;;
12308;SDS011;6217;48.150;17.142;2023-12-20T07:19:45;66.85;;;28.13;;
12308;SDS011;6217;48.150;17.142;2023-12-20T07:23:50;59.97;;;26.80;;
12308;SDS011;6217;48.150;17.142;2023-12-20T07:27:58;65.40;;;26.23;;
12308;SDS011;6217;48.150;17.142;2023-12-20T07:32:04;60.67;;;29.85;;
12308;SDS011;6217;48.150;17.142;2023-12-20T07:36:10;67.57;;;30.33;;
12308;SDS011;6217;48.150;17.142;2023-12-20T07:40:17;63.58;;;29.08;;
12308;SDS011;6217;48.150;17.142;2023-12-20T07:44:23;68.75;;;30.23;;
12308;SDS011;6217;48.150;17.142;2023-12-20T07:48:29;60.85;;;30.10;;
12308;SDS011;6217;48.150;17.142;2023-12-20T07:52:35;61.40;;;27.48;;
12308;SDS011;6217;48.150;17.142;2023-12-20T07:56:41;57.78;;;29.38;;
12308;SDS011;6217;48.150;17.142;2023-12-20T08:00:47;63.47;;;27.73;;
12308;SDS011;6217;48.150;17.142;2023-12-20T08:04:53;59.85;;;29.70;;
12308;SDS011;6217;48.150;17.142;2023-12-20T08:08:59;55.38;;;28.80;;
12308;SDS011;6217;48.150;17.142;2023-12-20T08:13:05;59.22;;;27.40;;
12308;SDS011;6217;48.150;17.142;2023-12-20T08:17:12;61.17;;;28.23;;
12308;SDS011;6217;48.150;17.142;2023-12-20T08:21:18;52.20;;;25.00;;
12308;SDS011;6217;48.150;17.142;2023-12-20T08:25:25;55.92;;;26.80;;
12308;SDS011;6217;48.150;17.142;2023-12-20T08:29:31;55.30;;;25.40;;
12308;SDS011;6217;48.150;17.142;2023-12-20T08:33:37;50.40;;;26.42;;
12308;SDS011;6217;48.150;17.142;2023-12-20T08:37:43;53.20;;;25.40;;
12308;SDS011;6217;48.150;17.142;2023-12-20T08:41:49;60.83;;;28.27;;
12308;SDS011;6217;48.150;17.142;2023-12-20T08:45:54;51.95;;;24.88;;
12308;SDS011;6217;48.150;17.142;2023-12-20T08:50:00;57.72;;;25.42;;
12308;SDS011;6217;48.150;17.142;2023-12-20T08:54:07;60.00;;;26.98;;
12308;SDS011;6217;48.150;17.142;2023-12-20T08:58:13;54.30;;;24.75;;
12308;SDS011;6217;48.150;17.142;2023-12-20T09:02:19;50.28;;;26.85;;
12308;SDS011;6217;48.150;17.142;2023-12-20T09:06:25;58.17;;;26.60;;
12308;SDS011;6217;48.150;17.142;2023-12-20T09:10:31;56.65;;;26.20;;
12308;SDS011;6217;48.150;17.142;2023-12-20T09:14:37;49.45;;;26.30;;
12308;SDS011;6217;48.150;17.142;2023-12-20T09:18:43;50.65;;;27.00;;
12308;SDS011;6217;48.150;17.142;2023-12-20T09:22:49;39.42;;;17.80;;
12308;SDS011;6217;48.150;17.142;2023-12-20T09:26:55;5.57;;;4.20;;
12308;SDS011;6217;48.150;17.142;2023-12-20T09:31:01;5.20;;;3.03;;
12308;SDS011;6217;48.150;17.142;2023-12-20T09:35:06;8.98;;;3.70;;
12308;SDS011;6217;48.150;17.142;2023-12-20T09:39:14;4.45;;;3.90;;
12308;SDS011;6217;48.150;17.142;2023-12-20T09:43:31;4.40;;;2.72;;
12308;SDS011;6217;48.150;17.142;2023-12-20T09:47:43;5.25;;;2.28;;
12308;SDS011;6217;48.150;17.142;2023-12-20T09:51:50;9.85;;;3.40;;
12308;SDS011;6217;48.150;17.142;2023-12-20T09:55:58;3.42;;;2.80;;
12308;SDS011;6217;48.150;17.142;2023-12-20T10:00:08;5.90;;;2.70;;
12308;SDS011;6217;48.150;17.142;2023-12-20T10:04:17;6.45;;;3.05;;
12308;SDS011;6217;48.150;17.142;2023-12-20T10:08:23;4.68;;;2.47;;
12308;SDS011;6217;48.150;17.142;2023-12-20T10:12:29;6.72;;;2.33;;
12308;SDS011;6217;48.150;17.142;2023-12-20T10:16:35;5.18;;;2.15;;
12308;SDS011;6217;48.150;17.142;2023-12-20T10:20:41;2.10;;;1.85;;
12308;SDS011;6217;48.150;17.142;2023-12-20T10:24:48;4.78;;;1.83;;
12308;SDS011;6217;48.150;17.142;2023-12-20T10:28:54;5.20;;;2.10;;
12308;SDS011;6217;48.150;17.142;2023-12-20T10:37:14;1.30;;;1.20;;
12308;SDS011;6217;48.150;17.142;2023-12-20T10:41:27;1.85;;;1.48;;
12308;SDS011;6217;48.150;17.142;2023-12-20T10:45:37;1.33;;;1.23;;
12308;SDS011;6217;48.150;17.142;2023-12-20T10:49:43;1.52;;;1.17;;
12308;SDS011;6217;48.150;17.142;2023-12-20T10:53:51;2.70;;;1.25;;
12308;SDS011;6217;48.150;17.142;2023-12-20T10:58:03;1.15;;;0.80;;
12308;SDS011;6217;48.150;17.142;2023-12-20T11:02:13;1.63;;;1.00;;
12308;SDS011;6217;48.150;17.142;2023-12-20T11:15:11;2.92;;;0.98;;
12308;SDS011;6217;48.150;17.142;2023-12-20T11:19:18;1.50;;;0.88;;
12308;SDS011;6217;48.150;17.142;2023-12-20T11:23:24;2.10;;;0.80;;
12308;SDS011;6217;48.150;17.142;2023-12-20T11:27:30;3.40;;;0.98;;
12308;SDS011;6217;48.150;17.142;2023-12-20T11:31:40;1.20;;;0.95;;
12308;SDS011;6217;48.150;17.142;2023-12-20T11:35:46;1.02;;;0.82;;
12308;SDS011;6217;48.150;17.142;2023-12-20T11:39:56;1.70;;;0.90;;
12308;SDS011;6217;48.150;17.142;2023-12-20T11:44:07;2.20;;;0.98;;
12308;SDS011;6217;48.150;17.142;2023-12-20T11:48:14;1.10;;;0.80;;
12308;SDS011;6217;48.150;17.142;2023-12-20T11:52:20;1.92;;;1.00;;
12308;SDS011;6217;48.150;17.142;2023-12-20T11:56:26;1.40;;;0.85;;
12308;SDS011;6217;48.150;17.142;2023-12-20T12:00:32;1.95;;;1.10;;
12308;SDS011;6217;48.150;17.142;2023-12-20T12:04:38;4.53;;;1.10;;
12308;SDS011;6217;48.150;17.142;2023-12-20T12:08:47;1.27;;;1.15;;
12308;SDS011;6217;48.150;17.142;2023-12-20T12:12:53;1.10;;;1.00;;
12308;SDS011;6217;48.150;17.142;2023-12-20T12:16:59;1.73;;;0.95;;
12308;SDS011;6217;48.150;17.142;2023-12-20T12:21:04;1.75;;;1.00;;
12308;SDS011;6217;48.150;17.142;2023-12-20T12:25:11;2.28;;;0.88;;
12308;SDS011;6217;48.150;17.142;2023-12-20T12:29:19;1.35;;;1.00;;
12308;SDS011;6217;48.150;17.142;2023-12-20T12:33:25;1.00;;;0.88;;
12308;SDS011;6217;48.150;17.142;2023-12-20T12:37:33;3.40;;;1.00;;
12308;SDS011;6217;48.150;17.142;2023-12-20T12:41:43;1.30;;;1.20;;
12308;SDS011;6217;48.150;17.142;2023-12-20T12:45:49;1.30;;;0.93;;
12308;SDS011;6217;48.150;17.142;2023-12-20T12:49:55;0.90;;;0.90;;
12308;SDS011;6217;48.150;17.142;2023-12-20T12:54:01;1.38;;;1.27;;
12308;SDS011;6217;48.150;17.142;2023-12-20T12:58:08;1.55;;;1.27;;
12308;SDS011;6217;48.150;17.142;2023-12-20T13:02:14;1.08;;;0.98;;
12308;SDS011;6217;48.150;17.142;2023-12-20T13:06:20;1.35;;;1.08;;
12308;SDS011;6217;48.150;17.142;2023-12-20T13:10:26;0.90;;;0.90;;
12308;SDS011;6217;48.150;17.142;2023-12-20T13:14:33;1.45;;;1.30;;
12308;SDS011;6217;48.150;17.142;2023-12-20T13:18:40;1.77;;;1.40;;
12308;SDS011;6217;48.150;17.142;2023-12-20T13:22:48;1.55;;;1.20;;
12308;SDS011;6217;48.150;17.142;2023-12-20T13:26:53;1.40;;;1.30;;
12308;SDS011;6217;48.150;17.142;2023-12-20T13:30:59;1.20;;;1.10;;
12308;SDS011;6217;48.150;17.142;2023-12-20T13:35:05;1.15;;;1.00;;
12308;SDS011;6217;48.150;17.142;2023-12-20T13:39:12;1.55;;;1.40;;
12308;SDS011;6217;48.150;17.142;2023-12-20T13:43:18;1.08;;;0.88;;
12308;SDS011;6217;48.150;17.142;2023-12-20T13:47:26;2.33;;;0.90;;
12308;SDS011;6217;48.150;17.142;2023-12-20T13:51:32;1.10;;;0.93;;
12308;SDS011;6217;48.150;17.142;2023-12-20T13:55:38;1.00;;;0.90;;
12308;SDS011;6217;48.150;17.142;2023-12-20T13:59:45;1.10;;;1.00;;
12308;SDS011;6217;48.150;17.142;2023-12-20T14:03:51;0.80;;;0.80;;
12308;SDS011;6217;48.150;17.142;2023-12-20T14:14:29;1.38;;;1.08;;
12308;SDS011;6217;48.150;17.142;2023-12-20T15:14:54;0.82;;;0.75;;
12308;SDS011;6217;48.150;17.142;2023-12-20T15:19:59;1.27;;;0.80;;
12308;SDS011;6217;48.150;17.142;2023-12-20T15:32:17;0.70;;;0.70;;
12308;SDS011;6217;48.150;17.142;2023-12-20T15:42:27;0.85;;;0.82;;
12308;SDS011;6217;48.150;17.142;2023-12-20T15:47:44;0.93;;;0.70;;
12308;SDS011;6217;48.150;17.142;2023-12-20T15:53:17;1.25;;;0.85;;
12308;SDS011;6217;48.150;17.142;2023-12-20T15:57:50;7.68;;;1.02;;
12308;SDS011;6217;48.150;17.142;2023-12-20T16:02:08;0.80;;;0.70;;
12308;SDS011;6217;48.150;17.142;2023-12-20T16:07:15;1.00;;;0.80;;
12308;SDS011;6217;48.150;17.142;2023-12-20T16:17:22;1.25;;;0.60;;
12308;SDS011;6217;48.150;17.142;2023-12-20T16:26:05;1.00;;;0.82;;
12308;SDS011;6217;48.150;17.142;2023-12-20T16:31:09;1.00;;;0.60;;
12308;SDS011;6217;48.150;17.142;2023-12-20T16:35:43;0.90;;;0.60;;
12308;SDS011;6217;48.150;17.142;2023-12-20T16:40:32;0.98;;;0.73;;
12308;SDS011;6217;48.150;17.142;2023-12-20T16:45:23;2.85;;;0.80;;
12308;SDS011;6217;48.150;17.142;2023-12-20T16:54:33;0.90;;;0.88;;
12308;SDS011;6217;48.150;17.142;2023-12-20T16:59:26;1.15;;;0.85;;
12308;SDS011;6217;48.150;17.142;2023-12-20T17:04:08;1.08;;;0.70;;
12308;SDS011;6217;48.150;17.142;2023-12-20T17:08:43;0.80;;;0.70;;
12308;SDS011;6217;48.150;17.142;2023-12-20T17:18:37;2.00;;;0.65;;
12308;SDS011;6217;48.150;17.142;2023-12-20T17:22:46;0.77;;;0.55;;
12308;SDS011;6217;48.150;17.142;2023-12-20T17:26:52;1.58;;;0.60;;
12308;SDS011;6217;48.150;17.142;2023-12-20T17:30:58;1.10;;;0.40;;
12308;SDS011;6217;48.150;17.142;2023-12-20T17:35:05;0.77;;;0.65;;
12308;SDS011;6217;48.150;17.142;2023-12-20T17:39:11;0.80;;;0.80;;
12308;SDS011;6217;48.150;17.142;2023-12-20T17:43:19;1.15;;;0.70;;
12308;SDS011;6217;48.150;17.142;2023-12-20T17:47:25;1.67;;;0.70;;
12308;SDS011;6217;48.150;17.142;2023-12-20T17:51:31;0.65;;;0.65;;
12308;SDS011;6217;48.150;17.142;2023-12-20T17:55:37;5.13;;;1.95;;
12308;SDS011;6217;48.150;17.142;2023-12-20T17:59:43;6.43;;;2.25;;
12308;SDS011;6217;48.150;17.142;2023-12-20T18:03:49;5.80;;;2.35;;
12308;SDS011;6217;48.150;17.142;2023-12-20T18:07:55;6.25;;;2.58;;
12308;SDS011;6217;48.150;17.142;2023-12-20T18:12:01;4.65;;;2.30;;
12308;SDS011;6217;48.150;17.142;2023-12-20T18:16:07;3.78;;;1.98;;
12308;SDS011;6217;48.150;17.142;2023-12-20T18:20:15;1.98;;;1.50;;
12308;SDS011;6217;48.150;17.142;2023-12-20T18:24:20;3.15;;;1.17;;
12308;SDS011;6217;48.150;17.142;2023-12-20T18:28:26;1.58;;;1.45;;
12308;SDS011;6217;48.150;17.142;2023-12-20T18:32:32;1.60;;;1.02;;
12308;SDS011;6217;48.150;17.142;2023-12-20T18:36:39;7.10;;;1.70;;
12308;SDS011;6217;48.150;17.142;2023-12-20T18:40:45;1.17;;;1.08;;
12308;SDS011;6217;48.150;17.142;2023-12-20T18:44:52;2.67;;;1.58;;
12308;SDS011;6217;48.150;17.142;2023-12-20T18:49:00;1.75;;;1.13;;
12308;SDS011;6217;48.150;17.142;2023-12-20T18:53:06;1.38;;;1.02;;
12308;SDS011;6217;48.150;17.142;2023-12-20T18:57:12;0.98;;;0.80;;
12308;SDS011;6217;48.150;17.142;2023-12-20T19:01:18;1.10;;;0.80;;
12308;SDS011;6217;48.150;17.142;2023-12-20T19:05:24;0.70;;;0.70;;
12308;SDS011;6217;48.150;17.142;2023-12-20T19:09:32;0.70;;;0.70;;
12308;SDS011;6217;48.150;17.142;2023-12-20T19:13:38;0.98;;;0.60;;
12308;SDS011;6217;48.150;17.142;2023-12-20T19:17:44;1.13;;;1.00;;
12308;SDS011;6217;48.150;17.142;2023-12-20T19:21:50;0.80;;;0.77;;
12308;SDS011;6217;48.150;17.142;2023-12-20T19:26:04;0.88;;;0.60;;
12308;SDS011;6217;48.150;17.142;2023-12-20T19:30:11;1.23;;;1.10;;
12308;SDS011;6217;48.150;17.142;2023-12-20T19:34:18;0.85;;;0.65;;
12308;SDS011;6217;48.150;17.142;2023-12-20T19:38:33;1.35;;;0.90;;
12308;SDS011;6217;48.150;17.142;2023-12-20T19:42:48;0.82;;;0.57;;
12308;SDS011;6217;48.150;17.142;2023-12-20T19:46:54;1.27;;;0.70;;
12308;SDS011;6217;48.150;17.142;2023-12-20T19:51:08;2.00;;;0.70;;
12308;SDS011;6217;48.150;17.142;2023-12-20T20:00:38;1.52;;;0.80;;
12308;SDS011;6217;48.150;17.142;2023-12-20T20:10:34;1.02;;;0.63;;
12308;SDS011;6217;48.150;17.142;2023-12-20T20:14:40;1.42;;;0.80;;
12308;SDS011;6217;48.150;17.142;2023-12-20T20:24:07;0.50;;;0.47;;
12308;SDS011;6217;48.150;17.142;2023-12-20T20:28:14;1.50;;;0.52;;
12308;SDS011;6217;48.150;17.142;2023-12-20T20:32:37;2.78;;;0.52;;
12308;SDS011;6217;48.150;17.142;2023-12-20T20:37:25;0.50;;;0.50;;
12308;SDS011;6217;48.150;17.142;2023-12-20T20:42:09;0.50;;;0.50;;
12308;SDS011;6217;48.150;17.142;2023-12-20T20:46:32;1.98;;;0.65;;
12308;SDS011;6217;48.150;17.142;2023-12-20T20:51:06;0.75;;;0.52;;
12308;SDS011;6217;48.150;17.142;2023-12-20T20:55:12;0.60;;;0.60;;
12308;SDS011;6217;48.150;17.142;2023-12-20T20:59:21;2.38;;;0.90;;
12308;SDS011;6217;48.150;17.142;2023-12-20T21:03:33;0.60;;;0.60;;
12308;SDS011;6217;48.150;17.142;2023-12-20T21:07:39;0.98;;;0.75;;
12308;SDS011;6217;48.150;17.142;2023-12-20T21:11:49;2.20;;;0.75;;
12308;SDS011;6217;48.150;17.142;2023-12-20T21:15:55;1.02;;;1.00;;
12308;SDS011;6217;48.150;17.142;2023-12-20T21:20:02;1.17;;;0.60;;
12308;SDS011;6217;48.150;17.142;2023-12-20T21:24:08;1.75;;;0.60;;
12308;SDS011;6217;48.150;17.142;2023-12-20T21:28:18;2.13;;;0.70;;
12308;SDS011;6217;48.150;17.142;2023-12-20T21:32:24;2.78;;;1.65;;
12308;SDS011;6217;48.150;17.142;2023-12-20T21:36:30;5.93;;;0.80;;
12308;SDS011;6217;48.150;17.142;2023-12-20T21:40:36;1.23;;;0.90;;
12308;SDS011;6217;48.150;17.142;2023-12-20T21:44:42;1.42;;;0.82;;
12308;SDS011;6217;48.150;17.142;2023-12-20T21:48:48;1.67;;;1.10;;
12308;SDS011;6217;48.150;17.142;2023-12-20T21:52:54;4.25;;;0.98;;
12308;SDS011;6217;48.150;17.142;2023-12-20T21:57:00;2.45;;;0.80;;
12308;SDS011;6217;48.150;17.142;2023-12-20T22:01:06;6.15;;;1.42;;
12308;SDS011;6217;48.150;17.142;2023-12-20T22:05:12;0.85;;;0.80;;
12308;SDS011;6217;48.150;17.142;2023-12-20T22:09:18;5.25;;;0.98;;
12308;SDS011;6217;48.150;17.142;2023-12-20T22:13:24;0.90;;;0.90;;
12308;SDS011;6217;48.150;17.142;2023-12-20T22:17:35;1.23;;;0.70;;
12308;SDS011;6217;48.150;17.142;2023-12-20T22:21:41;1.35;;;0.80;;
12308;SDS011;6217;48.150;17.142;2023-12-20T22:25:47;1.83;;;0.90;;
12308;SDS011;6217;48.150;17.142;2023-12-20T22:30:02;2.05;;;1.20;;
12308;SDS011;6217;48.150;17.142;2023-12-20T22:34:14;2.08;;;0.80;;
12308;SDS011;6217;48.150;17.142;2023-12-20T22:38:37;0.95;;;0.70;;
12308;SDS011;6217;48.150;17.142;2023-12-20T22:43:16;1.50;;;0.90;;
12308;SDS011;6217;48.150;17.142;2023-12-20T22:47:28;1.67;;;0.73;;
12308;SDS011;6217;48.150;17.142;2023-12-20T22:51:53;1.02;;;0.80;;
12308;SDS011;6217;48.150;17.142;2023-12-20T23:00:59;2.03;;;0.80;;
12308;SDS011;6217;48.150;17.142;2023-12-20T23:05:46;4.53;;;0.60;;
12308;SDS011;6217;48.150;17.142;2023-12-20T23:16:54;1.50;;;1.02;;
12308;SDS011;6217;48.150;17.142;2023-12-20T23:21:40;2.15;;;0.70;;
12308;SDS011;6217;48.150;17.142;2023-12-20T23:25:47;2.10;;;0.50;;
12308;SDS011;6217;48.150;17.142;2023-12-20T23:29:56;0.88;;;0.70;;
12308;SDS011;6217;48.150;17.142;2023-12-20T23:34:02;1.63;;;0.90;;
12308;SDS011;6217;48.150;17.142;2023-12-20T23:38:09;2.53;;;0.77;;
12308;SDS011;6217;48.150;17.142;2023-12-20T23:42:15;0.60;;;0.55;;
12308;SDS011;6217;48.150;17.142;2023-12-20T23:46:26;2.25;;;0.65;;
12308;SDS011;6217;48.150;17.142;2023-12-20T23:50:32;0.80;;;0.50;;
12308;SDS011;6217;48.150;17.142;2023-12-20T23:54:45;0.85;;;0.68;;
12308;SDS011;6217;48.150;17.142;2023-12-20T23:58:58;0.90;;;0.50;;
